Time;durP1;ratioP1;P1;durP2;ratioP2;P2;SDS_P1;SDS_P2;PMS_P1;PMS_P2;Temp;Humidity;BMP_temperature;BMP_pressure;BME280_temperature;BME280_humidity;BME280_pressure;Samples;Min_cycle;Max_cycle;Signal;HPM_P1;HPM_P2
2023/04/07 00:02:15;;;;;;;6.95;5.47;;;8.80;63.00;;;;;;4954500;28;20054;-63
2023/04/07 00:04:40;;;;;;;10.23;5.55;;;8.70;63.40;;;;;;4954828;28;20431;-61
2023/04/07 00:07:06;;;;;;;8.45;5.68;;;8.70;63.80;;;;;;4956066;28;20027;-62
2023/04/07 00:09:31;;;;;;;7.22;5.30;;;8.60;64.20;;;;;;4955544;28;20073;-63
2023/04/07 00:11:57;;;;;;;7.13;5.65;;;8.60;64.50;;;;;;4955503;28;20035;-61
2023/04/07 00:14:23;;;;;;;7.57;5.15;;;8.50;64.70;;;;;;4955822;28;20363;-63
2023/04/07 00:16:48;;;;;;;7.47;5.55;;;8.50;64.80;;;;;;4955211;28;20054;-63
2023/04/07 00:19:14;;;;;;;9.02;5.78;;;8.50;65.00;;;;;;4956852;28;20035;-61
2023/04/07 00:21:39;;;;;;;6.53;5.35;;;8.50;65.20;;;;;;4956183;28;20063;-63
2023/04/07 00:24:05;;;;;;;8.35;5.70;;;8.50;65.40;;;;;;4953576;28;20039;-63
2023/04/07 00:26:31;;;;;;;7.47;5.88;;;8.50;65.70;;;;;;4953190;28;20128;-63
2023/04/07 00:28:58;;;;;;;7.45;5.90;;;8.50;65.70;;;;;;4955453;28;20055;-63
2023/04/07 00:31:23;;;;;;;6.53;5.35;;;8.40;65.80;;;;;;4956180;28;20055;-62
2023/04/07 00:33:49;;;;;;;8.32;5.68;;;8.40;66.10;;;;;;4956696;28;20600;-63
2023/04/07 00:36:15;;;;;;;6.82;5.30;;;8.40;66.10;;;;;;4954878;28;20031;-63
2023/04/07 00:38:40;;;;;;;7.10;5.50;;;8.50;66.10;;;;;;4958083;28;20281;-63
2023/04/07 00:41:06;;;;;;;6.65;5.40;;;8.40;66.20;;;;;;4958787;28;20046;-63
2023/04/07 00:43:32;;;;;;;8.23;6.05;;;8.40;66.40;;;;;;4959329;28;20600;-63
2023/04/07 00:45:57;;;;;;;9.68;6.15;;;8.40;66.40;;;;;;4957541;28;20035;-62
2023/04/07 00:48:24;;;;;;;9.02;5.72;;;8.40;66.40;;;;;;4956644;28;20047;-60
2023/04/07 00:50:50;;;;;;;7.95;5.65;;;8.40;66.60;;;;;;4957349;28;20082;-62
2023/04/07 00:53:16;;;;;;;7.10;5.88;;;8.40;66.80;;;;;;4956827;28;20521;-62
2023/04/07 00:55:42;;;;;;;8.15;5.50;;;8.40;67.00;;;;;;4958889;28;20323;-62
2023/04/07 00:58:08;;;;;;;7.15;5.45;;;8.40;67.00;;;;;;4958428;28;20049;-62
2023/04/07 01:00:59;;;;;;;8.07;6.22;;;8.40;67.00;;;;;;4956410;28;20046;-62
2023/04/07 01:03:32;;;;;;;6.88;5.35;;;8.40;67.40;;;;;;4955166;28;20039;-62
2023/04/07 01:06:00;;;;;;;6.97;5.32;;;8.30;67.30;;;;;;4954827;28;20028;-62
2023/04/07 01:08:45;;;;;;;6.82;5.70;;;8.30;67.30;;;;;;4953429;28;20027;-63
2023/04/07 01:11:24;;;;;;;7.28;5.70;;;8.20;67.70;;;;;;4956843;28;20095;-61
2023/04/07 01:13:51;;;;;;;8.10;5.93;;;8.30;68.40;;;;;;4955151;28;20035;-63
2023/04/07 01:16:24;;;;;;;7.13;5.75;;;8.20;67.50;;;;;;4954295;28;20566;-62
2023/04/07 01:18:53;;;;;;;8.52;6.05;;;8.10;68.50;;;;;;4955130;28;20049;-63
2023/04/07 01:21:21;;;;;;;8.57;6.00;;;8.10;68.30;;;;;;4956607;28;20123;-63
2023/04/07 01:23:59;;;;;;;8.25;6.28;;;8.10;68.60;;;;;;4954662;28;20499;-62
2023/04/07 01:26:30;;;;;;;9.23;6.43;;;8.10;69.20;;;;;;4955141;28;20813;-62
2023/04/07 01:29:34;;;;;;;9.25;6.20;;;8.00;68.80;;;;;;4957966;28;20049;-61
2023/04/07 01:32:02;;;;;;;9.07;6.32;;;8.00;70.10;;;;;;4954945;28;20062;-63
2023/04/07 01:34:30;;;;;;;10.07;6.63;;;8.00;68.80;;;;;;4952373;28;20055;-63
2023/04/07 01:36:57;;;;;;;9.63;6.57;;;8.00;69.20;;;;;;4955864;28;20333;-62
2023/04/07 01:39:25;;;;;;;8.18;6.00;;;8.00;69.40;;;;;;4957114;28;20395;-62
2023/04/07 01:41:53;;;;;;;9.98;6.72;;;8.00;69.40;;;;;;4958072;28;20039;-63
2023/04/07 01:44:19;;;;;;;8.30;6.40;;;8.00;69.40;;;;;;4956300;28;20586;-62
2023/04/07 01:46:45;;;;;;;8.45;6.63;;;8.00;69.30;;;;;;4957154;28;20311;-62
2023/04/07 01:49:12;;;;;;;8.80;6.57;;;8.00;69.50;;;;;;4954688;28;20541;-61
2023/04/07 01:51:40;;;;;;;7.55;6.18;;;8.00;69.90;;;;;;4953637;28;20049;-61
2023/04/07 01:54:07;;;;;;;8.63;6.13;;;8.00;69.70;;;;;;4953547;28;20518;-62
2023/04/07 01:56:32;;;;;;;8.20;6.35;;;8.00;69.70;;;;;;4952662;28;20050;-62
2023/04/07 01:58:58;;;;;;;8.13;6.20;;;8.00;69.80;;;;;;4954308;28;20039;-62
2023/04/07 02:01:24;;;;;;;8.70;6.88;;;8.00;69.90;;;;;;4955080;28;20046;-61
2023/04/07 02:04:00;;;;;;;9.93;6.72;;;8.00;69.90;;;;;;4952644;28;20043;-62
2023/04/07 02:06:33;;;;;;;7.85;5.80;;;8.00;70.40;;;;;;4952762;28;20038;-63
2023/04/07 02:09:05;;;;;;;8.40;6.32;;;8.00;70.60;;;;;;4952661;28;20134;-61
2023/04/07 02:11:33;;;;;;;8.98;6.57;;;7.90;70.20;;;;;;4954959;28;20031;-61
2023/04/07 02:14:00;;;;;;;8.88;6.60;;;8.00;70.10;;;;;;4952756;28;20038;-62
2023/04/07 02:16:30;;;;;;;8.55;6.50;;;8.00;70.40;;;;;;4954084;28;20027;-61
2023/04/07 02:18:57;;;;;;;8.57;6.75;;;8.00;70.10;;;;;;4953350;28;20035;-63
2023/04/07 02:21:24;;;;;;;8.40;6.18;;;8.00;70.10;;;;;;4954203;28;20051;-62
2023/04/07 02:23:50;;;;;;;8.20;6.65;;;8.00;70.00;;;;;;4953610;28;20047;-62
2023/04/07 02:26:15;;;;;;;8.80;6.72;;;8.00;70.00;;;;;;4952416;28;20038;-62
2023/04/07 02:28:41;;;;;;;8.85;6.43;;;8.00;70.20;;;;;;4954511;28;20039;-61
2023/04/07 02:31:07;;;;;;;8.18;6.43;;;8.10;70.20;;;;;;4956134;28;20493;-61
2023/04/07 02:33:33;;;;;;;9.52;7.00;;;8.10;70.10;;;;;;4955976;28;20376;-63
2023/04/07 02:35:58;;;;;;;8.50;6.53;;;8.10;70.20;;;;;;4952574;28;20482;-62
2023/04/07 02:38:24;;;;;;;9.52;6.70;;;8.10;70.10;;;;;;4955742;28;20035;-62
2023/04/07 02:40:50;;;;;;;8.88;6.82;;;8.10;70.10;;;;;;4953325;28;20085;-63
2023/04/07 02:43:16;;;;;;;8.95;6.85;;;8.20;70.10;;;;;;4954120;28;20118;-62
2023/04/07 02:45:42;;;;;;;9.98;6.90;;;8.20;70.20;;;;;;4951256;28;20426;-62
2023/04/07 02:48:08;;;;;;;9.40;6.82;;;8.20;70.40;;;;;;4956704;28;20533;-63
2023/04/07 02:50:33;;;;;;;8.90;6.88;;;8.20;70.50;;;;;;4955221;28;20085;-61
2023/04/07 02:52:59;;;;;;;9.88;6.72;;;8.10;70.60;;;;;;4957249;28;20029;-62
2023/04/07 02:55:24;;;;;;;8.20;6.65;;;8.10;70.50;;;;;;4957700;28;20036;-62
2023/04/07 02:57:50;;;;;;;10.32;6.97;;;8.10;70.50;;;;;;4957383;28;20129;-62
2023/04/07 03:00:16;;;;;;;8.88;6.60;;;8.10;70.50;;;;;;4959189;28;20324;-63
2023/04/07 03:02:41;;;;;;;10.38;6.93;;;8.10;70.60;;;;;;4957340;28;20039;-62
2023/04/07 03:05:07;;;;;;;9.60;7.32;;;8.10;70.70;;;;;;4958379;28;20042;-63
2023/04/07 03:07:33;;;;;;;9.20;7.03;;;8.10;70.90;;;;;;4956535;28;20035;-62
2023/04/07 03:09:58;;;;;;;8.57;6.75;;;8.10;70.90;;;;;;4955477;28;20042;-63
2023/04/07 03:12:24;;;;;;;8.85;6.80;;;8.10;70.90;;;;;;4958718;28;20042;-63
2023/04/07 03:14:50;;;;;;;10.07;7.63;;;8.20;71.10;;;;;;4957070;28;20046;-63
2023/04/07 03:17:15;;;;;;;9.27;6.75;;;8.00;71.10;;;;;;4956687;28;20440;-63
2023/04/07 03:19:41;;;;;;;9.73;7.53;;;8.00;71.00;;;;;;4956543;28;20038;-62
2023/04/07 03:22:06;;;;;;;9.63;6.85;;;8.00;71.00;;;;;;4958305;28;20043;-63
2023/04/07 03:24:32;;;;;;;10.10;7.18;;;8.00;71.10;;;;;;4956012;28;20031;-62
2023/04/07 03:26:57;;;;;;;10.43;7.50;;;8.00;71.40;;;;;;4958744;28;20035;-62
2023/04/07 03:29:23;;;;;;;10.23;7.93;;;8.00;71.50;;;;;;4957396;28;20037;-61
2023/04/07 03:31:49;;;;;;;11.50;7.95;;;7.90;71.90;;;;;;4956535;28;20122;-63
2023/04/07 03:34:14;;;;;;;13.20;8.40;;;7.90;72.00;;;;;;4957564;28;20426;-62
2023/04/07 03:36:40;;;;;;;9.80;7.47;;;7.90;72.30;;;;;;4956906;28;20074;-63
2023/04/07 03:39:06;;;;;;;10.25;7.55;;;7.80;72.30;;;;;;4958013;28;20045;-61
2023/04/07 03:41:31;;;;;;;10.45;7.68;;;7.80;72.40;;;;;;4956502;28;20073;-63
2023/04/07 03:43:57;;;;;;;9.95;7.97;;;7.70;72.50;;;;;;4955589;28;20059;-61
2023/04/07 03:46:25;;;;;;;11.75;7.70;;;7.70;72.50;;;;;;4955196;28;20031;-61
2023/04/07 03:48:51;;;;;;;10.82;8.23;;;7.70;72.80;;;;;;4956553;28;20035;-62
2023/04/07 03:51:17;;;;;;;14.02;8.80;;;7.70;73.20;;;;;;4956768;28;20037;-63
2023/04/07 03:53:43;;;;;;;11.05;8.38;;;7.70;73.80;;;;;;4957450;28;20042;-61
2023/04/07 03:56:08;;;;;;;11.60;8.38;;;7.70;73.50;;;;;;4958636;28;20066;-63
2023/04/07 03:58:34;;;;;;;11.63;8.38;;;7.60;73.90;;;;;;4952333;28;20062;-63
2023/04/07 04:01:00;;;;;;;12.23;8.25;;;7.50;73.70;;;;;;4954212;28;20051;-63
2023/04/07 04:03:25;;;;;;;11.57;8.20;;;7.50;73.90;;;;;;4956620;28;20045;-63
2023/04/07 04:05:51;;;;;;;14.80;8.43;;;7.50;74.00;;;;;;4956452;28;20090;-63
2023/04/07 04:08:17;;;;;;;12.10;8.52;;;7.40;74.10;;;;;;4957605;28;20035;-63
2023/04/07 04:10:42;;;;;;;10.50;8.02;;;7.40;74.20;;;;;;4955445;28;20067;-63
2023/04/07 04:13:08;;;;;;;12.32;8.82;;;7.40;74.20;;;;;;4952907;28;20043;-63
2023/04/07 04:15:34;;;;;;;14.55;8.80;;;7.40;74.30;;;;;;4955318;28;21254;-62
2023/04/07 04:18:00;;;;;;;13.00;8.38;;;7.40;74.30;;;;;;4956556;28;20491;-62
2023/04/07 04:20:25;;;;;;;10.43;7.85;;;7.50;74.40;;;;;;4956194;28;20056;-62
2023/04/07 04:22:51;;;;;;;10.65;8.20;;;7.50;74.20;;;;;;4954870;28;20039;-63
2023/04/07 04:25:17;;;;;;;11.38;8.30;;;7.50;74.20;;;;;;4955234;28;20150;-62
2023/04/07 04:27:42;;;;;;;10.38;7.78;;;7.50;74.30;;;;;;4957469;28;20485;-63
2023/04/07 04:30:08;;;;;;;10.90;8.55;;;7.60;74.40;;;;;;4956371;28;20035;-63
2023/04/07 04:32:33;;;;;;;13.48;8.80;;;7.60;74.40;;;;;;4954569;28;20038;-62
2023/04/07 04:35:00;;;;;;;12.10;8.02;;;7.60;74.30;;;;;;4957175;28;20035;-63
2023/04/07 04:37:25;;;;;;;10.20;8.02;;;7.60;74.20;;;;;;4954313;28;20045;-62
2023/04/07 04:39:51;;;;;;;12.00;9.00;;;7.60;74.00;;;;;;4955014;28;20042;-63
2023/04/07 04:42:16;;;;;;;12.23;9.00;;;7.60;74.00;;;;;;4958213;28;20062;-62
2023/04/07 04:44:42;;;;;;;13.05;9.05;;;7.70;74.00;;;;;;4955254;28;20030;-61
2023/04/07 04:47:07;;;;;;;13.15;9.05;;;7.70;74.00;;;;;;4956297;28;20045;-63
2023/04/07 04:49:33;;;;;;;11.40;8.63;;;7.70;74.00;;;;;;4956604;28;20563;-61
2023/04/07 04:51:58;;;;;;;10.73;8.27;;;7.70;73.90;;;;;;4954011;28;20039;-63
2023/04/07 04:54:24;;;;;;;11.52;8.98;;;7.70;73.90;;;;;;4953332;28;20047;-63
2023/04/07 04:56:50;;;;;;;11.93;8.80;;;7.70;73.90;;;;;;4955562;28;20047;-62
2023/04/07 04:59:15;;;;;;;10.93;8.88;;;7.70;73.70;;;;;;4956946;28;20138;-61
2023/04/07 05:01:41;;;;;;;14.05;8.65;;;7.70;73.70;;;;;;4955422;28;20054;-63
2023/04/07 05:04:08;;;;;;;11.93;8.68;;;7.70;73.80;;;;;;4956353;28;20027;-61
2023/04/07 05:06:33;;;;;;;13.10;9.35;;;7.80;74.00;;;;;;4954303;28;20789;-62
2023/04/07 05:08:59;;;;;;;11.77;8.93;;;7.80;74.00;;;;;;4957588;28;20276;-62
2023/04/07 05:11:24;;;;;;;15.43;9.38;;;7.80;73.90;;;;;;4955490;28;20039;-62
2023/04/07 05:13:50;;;;;;;12.93;8.82;;;7.80;74.10;;;;;;4942779;28;20035;-63
2023/04/07 05:16:16;;;;;;;12.30;9.25;;;7.80;74.30;;;;;;4956158;28;20551;-63
2023/04/07 05:18:41;;;;;;;13.88;8.95;;;7.70;74.30;;;;;;4952844;28;20554;-63
2023/04/07 05:21:07;;;;;;;12.35;9.00;;;7.70;74.30;;;;;;4936216;28;20772;-62
2023/04/07 05:23:32;;;;;;;14.57;9.40;;;7.70;74.40;;;;;;4956562;28;20130;-62
2023/04/07 05:25:58;;;;;;;12.30;8.95;;;7.70;74.50;;;;;;4955790;28;20046;-63
2023/04/07 05:28:24;;;;;;;12.27;9.07;;;7.70;74.70;;;;;;4955224;28;20027;-62
2023/04/07 05:30:49;;;;;;;14.02;9.48;;;7.70;74.70;;;;;;4955003;28;20415;-63
2023/04/07 05:33:15;;;;;;;14.93;9.32;;;7.70;74.80;;;;;;4955170;28;20129;-62
2023/04/07 05:35:44;;;;;;;11.88;8.77;;;7.70;74.80;;;;;;4952983;28;20039;-63
2023/04/07 05:38:10;;;;;;;13.13;8.75;;;7.70;74.70;;;;;;4954643;28;20061;-62
2023/04/07 05:40:36;;;;;;;10.82;8.70;;;7.70;74.60;;;;;;4940050;28;20038;-63
2023/04/07 05:43:01;;;;;;;13.20;8.85;;;7.80;74.70;;;;;;4955725;28;20093;-62
2023/04/07 05:45:27;;;;;;;12.23;9.52;;;7.70;74.40;;;;;;4954327;28;20518;-63
2023/04/07 05:47:52;;;;;;;13.05;9.82;;;7.80;74.40;;;;;;4952579;28;20039;-62
2023/04/07 05:50:18;;;;;;;12.90;9.38;;;7.80;74.50;;;;;;4953239;28;20348;-63
2023/04/07 05:52:44;;;;;;;12.85;9.32;;;7.80;74.50;;;;;;4953800;28;20041;-63
2023/04/07 05:55:09;;;;;;;12.98;8.77;;;7.90;74.60;;;;;;4955227;28;20717;-61
2023/04/07 05:57:35;;;;;;;11.60;8.90;;;7.90;74.50;;;;;;4952608;28;20590;-63
2023/04/07 06:00:01;;;;;;;12.65;9.30;;;7.90;74.40;;;;;;4954145;28;20062;-62
2023/04/07 06:02:27;;;;;;;14.73;10.32;;;7.90;74.20;;;;;;4952609;28;20126;-61
2023/04/07 06:04:52;;;;;;;13.95;10.50;;;8.00;74.40;;;;;;4954598;28;20042;-62
2023/04/07 06:07:18;;;;;;;17.02;11.35;;;8.00;74.30;;;;;;4951206;28;20046;-62
2023/04/07 06:09:43;;;;;;;14.80;10.48;;;8.00;74.30;;;;;;4956788;28;20041;-62
2023/04/07 06:12:11;;;;;;;15.00;10.20;;;8.10;74.40;;;;;;4954893;28;20119;-61
2023/04/07 06:14:37;;;;;;;13.55;9.77;;;8.00;74.20;;;;;;4952263;28;20038;-62
2023/04/07 06:17:02;;;;;;;17.17;10.93;;;8.10;74.30;;;;;;4952306;28;20035;-62
2023/04/07 06:19:28;;;;;;;16.92;10.63;;;8.10;74.50;;;;;;4955214;28;20039;-62
2023/04/07 06:21:53;;;;;;;17.38;10.70;;;8.10;74.50;;;;;;4951157;28;20644;-62
2023/04/07 06:24:21;;;;;;;13.13;9.88;;;8.10;74.60;;;;;;4952605;28;20027;-62
2023/04/07 06:26:47;;;;;;;15.25;9.88;;;8.10;74.60;;;;;;4954134;28;21011;-63
2023/04/07 06:29:13;;;;;;;13.48;9.75;;;8.10;74.60;;;;;;4954220;28;20387;-62
2023/04/07 06:31:39;;;;;;;11.75;8.60;;;8.10;74.60;;;;;;4952593;28;20031;-63
2023/04/07 06:34:05;;;;;;;13.63;9.63;;;8.10;74.70;;;;;;4952018;28;20043;-62
2023/04/07 06:36:32;;;;;;;15.40;10.10;;;8.10;74.70;;;;;;4955552;28;20126;-62
2023/04/07 06:38:58;;;;;;;13.23;9.45;;;8.10;74.70;;;;;;4958304;28;20407;-62
2023/04/07 06:41:23;;;;;;;13.57;9.30;;;8.10;74.70;;;;;;4958525;28;20038;-61
2023/04/07 06:43:52;;;;;;;13.32;9.60;;;8.10;74.80;;;;;;4955753;28;20075;-62
2023/04/07 06:46:18;;;;;;;15.23;10.35;;;8.20;74.90;;;;;;4956133;28;20066;-62
2023/04/07 06:48:44;;;;;;;14.55;10.25;;;8.20;74.90;;;;;;4958316;28;20035;-63
2023/04/07 06:51:10;;;;;;;15.10;10.57;;;8.30;75.10;;;;;;4961652;28;20042;-62
2023/04/07 06:53:36;;;;;;;15.38;10.98;;;8.30;75.00;;;;;;4962083;28;20361;-63
2023/04/07 06:56:06;;;;;;;14.38;10.02;;;8.30;75.00;;;;;;4961442;28;20035;-63
2023/04/07 06:58:32;;;;;;;17.98;10.68;;;8.30;74.90;;;;;;4952607;28;20039;-63
2023/04/07 07:00:58;;;;;;;14.43;10.07;;;8.40;75.00;;;;;;4952655;28;20109;-63
2023/04/07 07:03:26;;;;;;;14.35;10.15;;;8.40;75.10;;;;;;4951861;28;20034;-63
2023/04/07 07:05:57;;;;;;;13.85;10.43;;;8.40;75.10;;;;;;4954719;28;20763;-63
2023/04/07 07:08:23;;;;;;;14.48;10.50;;;8.50;75.30;;;;;;4953676;28;20041;-63
2023/04/07 07:10:49;;;;;;;14.80;9.98;;;8.50;75.30;;;;;;4956219;28;20070;-63
2023/04/07 07:13:14;;;;;;;14.52;10.20;;;8.60;75.30;;;;;;4952053;28;20125;-63
2023/04/07 07:15:40;;;;;;;12.82;9.98;;;8.60;75.10;;;;;;4955856;28;20046;-63
2023/04/07 07:18:05;;;;;;;15.32;10.63;;;8.60;75.10;;;;;;4951484;28;20049;-63
2023/04/07 07:20:31;;;;;;;13.20;9.70;;;8.60;75.30;;;;;;4951247;28;20043;-63
2023/04/07 07:22:57;;;;;;;12.98;9.80;;;8.60;75.30;;;;;;4957348;28;20462;-63
2023/04/07 07:25:25;;;;;;;13.60;9.60;;;8.50;75.60;;;;;;4953957;28;20046;-63
2023/04/07 07:27:52;;;;;;;13.13;9.80;;;8.50;75.70;;;;;;4951852;28;20126;-63
2023/04/07 07:30:22;;;;;;;12.70;9.60;;;8.60;75.80;;;;;;4950800;28;20826;-63
2023/04/07 07:32:48;;;;;;;11.57;9.18;;;8.60;76.00;;;;;;4953657;28;20054;-62
2023/04/07 07:35:15;;;;;;;11.50;8.82;;;8.60;75.60;;;;;;4948837;28;20043;-62
2023/04/07 07:37:43;;;;;;;13.55;9.63;;;8.70;75.80;;;;;;4950241;28;20039;-62
2023/04/07 07:40:09;;;;;;;11.40;9.02;;;8.70;75.80;;;;;;4953280;28;20073;-62
2023/04/07 07:42:34;;;;;;;12.90;8.93;;;8.80;75.80;;;;;;4955732;28;20034;-62
2023/04/07 07:45:00;;;;;;;13.43;9.50;;;8.80;75.40;;;;;;4957722;28;20023;-62
2023/04/07 07:47:25;;;;;;;14.00;9.30;;;8.90;75.00;;;;;;4954757;28;20042;-63
2023/04/07 07:49:52;;;;;;;12.32;8.82;;;8.90;74.70;;;;;;4958173;28;20130;-63
2023/04/07 07:52:18;;;;;;;12.93;9.60;;;9.00;75.10;;;;;;4958584;28;20039;-61
2023/04/07 07:54:43;;;;;;;12.18;9.30;;;9.00;75.20;;;;;;4957606;28;20038;-62
2023/04/07 07:57:09;;;;;;;11.80;9.15;;;9.00;75.10;;;;;;4958717;28;20443;-62
2023/04/07 07:59:34;;;;;;;12.82;9.23;;;9.10;75.10;;;;;;4959278;28;20043;-63
2023/04/07 08:02:00;;;;;;;11.68;8.80;;;9.20;74.90;;;;;;4959536;28;20065;-62
2023/04/07 08:04:26;;;;;;;12.07;8.70;;;9.20;74.80;;;;;;4958564;28;20111;-62
2023/04/07 08:06:52;;;;;;;11.07;8.60;;;9.30;74.90;;;;;;4959624;28;20035;-62
2023/04/07 08:09:19;;;;;;;10.18;8.40;;;9.40;74.70;;;;;;4958545;28;20043;-63
2023/04/07 08:11:47;;;;;;;12.50;8.27;;;9.50;74.60;;;;;;4952560;28;20042;-62
2023/04/07 08:14:13;;;;;;;11.75;8.80;;;9.50;74.50;;;;;;4957973;28;20593;-62
2023/04/07 08:16:39;;;;;;;13.30;9.00;;;9.60;74.30;;;;;;4957781;28;20039;-62
2023/04/07 08:19:05;;;;;;;12.32;9.32;;;9.70;74.00;;;;;;4958762;28;20035;-62
2023/04/07 08:21:31;;;;;;;13.25;9.00;;;9.80;73.80;;;;;;4940345;28;20138;-62
2023/04/07 08:23:57;;;;;;;13.00;9.27;;;9.80;73.40;;;;;;4954595;28;20130;-62
2023/04/07 08:26:22;;;;;;;11.95;8.93;;;9.90;73.30;;;;;;4955054;28;20038;-62
2023/04/07 08:28:50;;;;;;;10.57;8.00;;;9.90;73.20;;;;;;4949157;28;21309;-62
2023/04/07 08:31:16;;;;;;;12.52;9.00;;;10.00;72.90;;;;;;4956002;28;20414;-62
2023/04/07 08:33:42;;;;;;;12.60;9.75;;;10.00;72.60;;;;;;4956998;28;20036;-62
2023/04/07 08:36:07;;;;;;;11.18;8.43;;;10.00;72.60;;;;;;4948807;28;20130;-62
2023/04/07 08:38:33;;;;;;;12.60;9.00;;;10.00;72.60;;;;;;4950808;28;20036;-62
2023/04/07 08:41:12;;;;;;;10.95;8.65;;;10.10;72.60;;;;;;4950075;28;20051;-62
2023/04/07 08:43:38;;;;;;;11.30;8.20;;;10.10;72.60;;;;;;4950180;28;20260;-62
2023/04/07 08:46:04;;;;;;;11.57;7.93;;;10.20;72.30;;;;;;4948275;28;20566;-61
2023/04/07 08:48:33;;;;;;;10.27;8.18;;;10.20;72.30;;;;;;4949089;28;20458;-63
2023/04/07 08:51:07;;;;;;;10.50;7.70;;;10.20;72.10;;;;;;4950743;28;20043;-62
2023/04/07 08:53:42;;;;;;;11.07;8.68;;;10.30;71.90;;;;;;4954200;28;20414;-62
2023/04/07 08:56:10;;;;;;;10.55;8.02;;;10.40;71.30;;;;;;4957462;28;20043;-63
2023/04/07 08:58:37;;;;;;;9.93;7.57;;;10.50;71.10;;;;;;4957181;28;20054;-62
2023/04/07 09:01:05;;;;;;;11.68;8.35;;;10.50;70.70;;;;;;4958279;28;20047;-60
2023/04/07 09:03:32;;;;;;;11.35;8.80;;;10.60;70.90;;;;;;4958318;28;20538;-63
2023/04/07 09:06:00;;;;;;;12.80;8.85;;;10.70;70.90;;;;;;4955316;28;20071;-63
2023/04/07 09:08:25;;;;;;;10.50;7.70;;;10.70;70.60;;;;;;4957086;28;20572;-62
2023/04/07 09:10:52;;;;;;;10.55;7.00;;;10.80;70.40;;;;;;4956797;28;20042;-62
2023/04/07 09:13:18;;;;;;;9.05;6.80;;;10.80;70.40;;;;;;4955019;28;20123;-62
2023/04/07 09:15:44;;;;;;;8.90;6.45;;;10.90;69.00;;;;;;4955105;28;20356;-62
2023/04/07 09:18:10;;;;;;;9.32;6.35;;;10.90;69.10;;;;;;4954393;28;20043;-63
2023/04/07 09:21:00;;;;;;;8.13;5.65;;;11.00;68.70;;;;;;4954632;28;20035;-62
2023/04/07 09:23:33;;;;;;;6.75;5.03;;;11.00;67.60;;;;;;4955011;28;20220;-62
2023/04/07 09:26:00;;;;;;;8.68;6.28;;;11.10;67.80;;;;;;4956118;28;20034;-63
2023/04/07 09:28:42;;;;;;;8.80;6.05;;;11.10;67.90;;;;;;4948898;28;20404;-63
2023/04/07 09:31:07;;;;;;;6.75;5.55;;;11.20;68.10;;;;;;4955652;28;20455;-63
2023/04/07 09:33:33;;;;;;;7.15;5.88;;;11.30;68.30;;;;;;4949944;28;20097;-62
2023/04/07 09:35:59;;;;;;;7.00;5.30;;;11.30;68.60;;;;;;4954283;28;20402;-62
2023/04/07 09:38:35;;;;;;;9.45;6.07;;;11.40;68.70;;;;;;4954094;28;20033;-62
2023/04/07 09:41:25;;;;;;;6.93;5.40;;;11.50;68.60;;;;;;4952005;28;20054;-63
2023/04/07 09:43:56;;;;;;;5.43;4.70;;;11.70;68.10;;;;;;4953377;28;20039;-63
2023/04/07 09:46:22;;;;;;;6.35;5.40;;;11.80;67.50;;;;;;4953312;28;20039;-63
2023/04/07 09:49:06;;;;;;;7.82;5.13;;;11.80;67.30;;;;;;4954017;28;20533;-62
2023/04/07 09:51:32;;;;;;;6.28;5.00;;;11.90;67.40;;;;;;4953888;28;20043;-63
2023/04/07 09:53:58;;;;;;;9.20;5.38;;;12.00;67.50;;;;;;4949887;28;20073;-63
2023/04/07 09:56:25;;;;;;;7.00;5.07;;;12.10;67.10;;;;;;4953122;28;20035;-62
2023/04/07 09:58:52;;;;;;;7.55;4.80;;;12.20;66.40;;;;;;4957811;28;20114;-61
2023/04/07 10:01:18;;;;;;;5.30;4.60;;;12.30;66.20;;;;;;4958176;28;20047;-62
2023/04/07 10:03:47;;;;;;;7.20;4.72;;;12.30;65.10;;;;;;4959098;28;20034;-62
2023/04/07 10:06:13;;;;;;;6.88;4.50;;;12.30;65.30;;;;;;4959739;28;20049;-62
2023/04/07 10:08:41;;;;;;;5.53;4.35;;;12.40;65.70;;;;;;4957927;28;20039;-61
2023/04/07 10:11:08;;;;;;;5.80;4.60;;;12.50;65.80;;;;;;4959791;28;20418;-61
2023/04/07 10:13:36;;;;;;;5.25;4.63;;;12.60;65.70;;;;;;4956807;28;20038;-62
2023/04/07 10:16:06;;;;;;;6.38;4.88;;;12.60;65.20;;;;;;4957924;28;20182;-61
2023/04/07 10:18:35;;;;;;;5.95;4.70;;;12.60;64.70;;;;;;4959260;28;20031;-62
2023/04/07 10:21:04;;;;;;;8.32;5.03;;;12.70;64.80;;;;;;4958543;28;20047;-62
2023/04/07 10:23:50;;;;;;;6.25;4.78;;;12.70;65.00;;;;;;4958562;28;20035;-61
2023/04/07 10:26:20;;;;;;;6.32;4.80;;;12.90;64.80;;;;;;4959097;28;20491;-61
2023/04/07 10:28:50;;;;;;;4.95;4.45;;;12.90;65.00;;;;;;4957755;28;20039;-61
2023/04/07 10:31:16;;;;;;;5.63;4.18;;;12.90;64.00;;;;;;4959330;28;20319;-61
2023/04/07 10:33:51;;;;;;;6.93;4.78;;;13.00;63.90;;;;;;4957505;28;20050;-62
2023/04/07 10:36:20;;;;;;;7.65;4.57;;;13.10;63.40;;;;;;4957453;28;20455;-62
2023/04/07 10:39:08;;;;;;;4.47;3.33;;;13.10;63.10;;;;;;4957057;28;20507;-61
2023/04/07 10:41:35;;;;;;;5.05;3.05;;;13.20;62.00;;;;;;4958293;28;20043;-62
2023/04/07 10:44:05;;;;;;;4.47;2.97;;;13.20;62.90;;;;;;4958296;28;20031;-62
2023/04/07 10:46:50;;;;;;;4.72;3.60;;;13.20;61.50;;;;;;4958315;28;20035;-62
2023/04/07 10:49:16;;;;;;;6.20;3.78;;;13.30;61.70;;;;;;4959025;28;20041;-62
2023/04/07 10:51:42;;;;;;;5.40;4.15;;;13.30;62.70;;;;;;4958343;28;20113;-62
2023/04/07 10:54:21;;;;;;;4.70;4.10;;;13.40;63.10;;;;;;4959324;28;20117;-62
2023/04/07 10:57:02;;;;;;;5.07;4.00;;;13.60;62.00;;;;;;4957558;28;20056;-62
2023/04/07 10:59:28;;;;;;;4.97;3.90;;;13.70;61.80;;;;;;4957928;28;20035;-62
2023/04/07 11:02:16;;;;;;;5.95;4.75;;;13.70;61.90;;;;;;4957403;28;20434;-61
2023/04/07 11:04:45;;;;;;;5.78;4.30;;;13.80;58.80;;;;;;4956683;28;20118;-60
2023/04/07 11:07:13;;;;;;;5.70;3.95;;;13.80;59.80;;;;;;4958152;28;20030;-62
2023/04/07 11:09:42;;;;;;;4.07;3.63;;;13.90;59.80;;;;;;4957175;28;20043;-62
2023/04/07 11:12:20;;;;;;;4.85;3.53;;;13.90;60.00;;;;;;4961733;28;20057;-62
2023/04/07 11:14:46;;;;;;;5.35;3.58;;;13.90;60.40;;;;;;4955685;28;20043;-63
2023/04/07 11:17:14;;;;;;;5.15;4.07;;;14.00;60.50;;;;;;4956202;28;20043;-62
2023/04/07 11:19:52;;;;;;;4.95;4.03;;;14.00;60.00;;;;;;4955795;28;20046;-61
2023/04/07 11:22:18;;;;;;;5.68;3.85;;;14.10;58.30;;;;;;4958954;28;20023;-62
2023/04/07 11:24:45;;;;;;;5.20;3.97;;;14.10;59.00;;;;;;4961428;28;20406;-63
2023/04/07 11:27:12;;;;;;;5.25;3.58;;;14.10;59.30;;;;;;4960917;28;20035;-62
2023/04/07 11:29:38;;;;;;;4.65;3.60;;;14.20;59.40;;;;;;4960614;28;20400;-63
2023/04/07 11:32:04;;;;;;;8.07;3.90;;;14.20;59.30;;;;;;4960119;28;20034;-62
2023/04/07 11:34:31;;;;;;;5.82;4.38;;;14.20;59.30;;;;;;4961428;28;20090;-63
2023/04/07 11:37:16;;;;;;;4.93;4.07;;;14.20;58.80;;;;;;4961015;28;20396;-61
2023/04/07 11:39:42;;;;;;;;;;;14.30;58.80;;;;;;4961070;28;20046;-62
2023/04/07 11:42:08;;;;;;;5.72;4.10;;;14.30;58.80;;;;;;4961713;28;20012;-62
2023/04/07 11:44:33;;;;;;;6.20;4.65;;;14.30;59.20;;;;;;4959369;28;20045;-61
2023/04/07 11:47:02;;;;;;;5.30;4.50;;;14.30;57.90;;;;;;4961507;28;20133;-62
2023/04/07 11:49:28;;;;;;;4.78;4.28;;;14.30;58.50;;;;;;4960855;28;20454;-63
2023/04/07 11:52:01;;;;;;;5.38;4.60;;;14.30;58.60;;;;;;4960145;28;20062;-62
2023/04/07 11:54:39;;;;;;;6.55;5.15;;;14.30;58.30;;;;;;4959842;28;20342;-61
2023/04/07 11:57:04;;;;;;;7.00;5.18;;;14.40;58.30;;;;;;4960500;28;20566;-63
2023/04/07 11:59:30;;;;;;;6.38;5.35;;;14.30;58.60;;;;;;4959962;28;20043;-62
2023/04/07 12:01:56;;;;;;;5.82;5.22;;;14.40;58.80;;;;;;4960325;28;20074;-63
2023/04/07 12:04:21;;;;;;;6.65;4.70;;;14.40;58.20;;;;;;4960236;28;20035;-61
2023/04/07 12:06:48;;;;;;;5.50;4.70;;;14.40;58.10;;;;;;4959565;28;20410;-61
2023/04/07 12:09:34;;;;;;;5.43;4.85;;;14.40;58.10;;;;;;4959469;28;20039;-60
2023/04/07 12:12:02;;;;;;;4.15;3.70;;;14.30;56.80;;;;;;4961609;28;20039;-63
2023/04/07 12:14:27;;;;;;;5.10;3.00;;;14.30;57.00;;;;;;4960491;28;20117;-62
2023/04/07 12:16:55;;;;;;;4.07;3.47;;;14.20;56.80;;;;;;4960330;28;20439;-61
2023/04/07 12:19:22;;;;;;;3.42;2.70;;;14.20;56.40;;;;;;4961506;28;20114;-62
2023/04/07 12:21:47;;;;;;;4.82;3.15;;;14.20;56.60;;;;;;4961263;28;20062;-62
2023/04/07 12:24:13;;;;;;;4.57;3.95;;;14.10;56.70;;;;;;4957983;28;20051;-62
2023/04/07 12:26:38;;;;;;;4.35;3.83;;;14.10;57.00;;;;;;4959623;28;20028;-60
2023/04/07 12:29:04;;;;;;;4.45;3.65;;;14.00;57.30;;;;;;4958363;28;20130;-62
2023/04/07 12:31:31;;;;;;;4.88;3.42;;;14.10;57.10;;;;;;4959867;28;20041;-61
2023/04/07 12:33:57;;;;;;;5.30;3.40;;;14.10;57.20;;;;;;4958950;28;20053;-62
2023/04/07 12:36:26;;;;;;;4.35;3.05;;;14.10;56.60;;;;;;4958791;28;20119;-62
2023/04/07 12:38:53;;;;;;;2.65;2.40;;;14.10;55.90;;;;;;4959123;28;20388;-62
2023/04/07 12:41:18;;;;;;;3.97;2.58;;;14.10;56.00;;;;;;4959046;28;20035;-60
2023/04/07 12:43:44;;;;;;;2.80;2.38;;;14.10;56.00;;;;;;4959727;28;20043;-62
2023/04/07 12:46:10;;;;;;;2.95;2.08;;;14.10;56.00;;;;;;4960838;28;20050;-62
2023/04/07 12:48:36;;;;;;;7.78;2.85;;;14.10;56.00;;;;;;4960487;28;20043;-62
2023/04/07 12:51:01;;;;;;;3.00;2.03;;;14.20;56.00;;;;;;4960374;28;20038;-62